Time;durP1;ratioP1;P1;durP2;ratioP2;P2;SDS_P1;SDS_P2;PMS_P1;PMS_P2;Temp;Humidity;BMP_temperature;BMP_pressure;BME280_temperature;BME280_humidity;BME280_pressure;Samples;Min_cycle;Max_cycle;Signal;HPM_P1;HPM_P2
2022/07/11 00:01:45;;;;;;;;;;;22.90;66.80;;;;;;5057582;28;20054;-81
2022/07/11 00:04:11;;;;;;;;;;;22.90;66.30;;;;;;5056590;28;20292;-81
2022/07/11 00:06:37;;;;;;;;;;;22.90;66.30;;;;;;5056688;28;20363;-82
2022/07/11 00:09:02;;;;;;;;;;;22.90;67.30;;;;;;5056718;28;19999;-80
2022/07/11 00:11:28;;;;;;;;;;;22.90;66.40;;;;;;5056610;28;19913;-81
2022/07/11 00:13:53;;;;;;;;;;;22.80;67.60;;;;;;5056358;28;19909;-82
2022/07/11 00:16:19;;;;;;;;;;;22.70;68.80;;;;;;5056472;28;20355;-82
2022/07/11 00:18:44;;;;;;;;;;;22.70;66.90;;;;;;5056178;28;19913;-82
2022/07/11 00:21:10;;;;;;;;;;;22.70;67.40;;;;;;5056121;28;19909;-81
2022/07/11 00:23:36;;;;;;;;;;;22.60;68.40;;;;;;5056546;28;19954;-81
2022/07/11 00:26:02;;;;;;;;;;;22.60;67.50;;;;;;5056800;28;19936;-81
2022/07/11 00:28:27;;;;;;;;;;;22.50;67.70;;;;;;5038624;28;20244;-81
2022/07/11 00:30:53;;;;;;;;;;;22.60;68.20;;;;;;5056121;28;19909;-82
2022/07/11 00:33:18;;;;;;;;;;;22.60;67.60;;;;;;5055348;28;19916;-81
2022/07/11 00:35:44;;;;;;;;;;;22.70;68.50;;;;;;5056481;28;19909;-82
2022/07/11 00:38:09;;;;;;;;;;;22.60;67.50;;;;;;5056148;28;20263;-82
2022/07/11 00:40:35;;;;;;;;;;;22.70;67.40;;;;;;5055998;28;19908;-81
2022/07/11 00:43:02;;;;;;;;;;;22.70;67.90;;;;;;5055871;28;20278;-82
2022/07/11 00:45:28;;;;;;;;;;;22.80;67.00;;;;;;5056169;28;19970;-83
2022/07/11 00:47:55;;;;;;;;;;;22.80;67.60;;;;;;5055209;28;19913;-81
2022/07/11 00:50:21;;;;;;;;;;;22.80;66.90;;;;;;5055358;28;19908;-81
2022/07/11 00:52:47;;;;;;;;;;;22.80;68.20;;;;;;5055856;28;20015;-82
2022/07/11 00:55:13;;;;;;;;;;;22.90;67.20;;;;;;5055789;28;19991;-82
2022/07/11 00:57:38;;;;;;;;;;;22.90;67.20;;;;;;5055660;28;19958;-81
2022/07/11 01:00:05;;;;;;;;;;;22.90;68.90;;;;;;5055685;28;19909;-81
2022/07/11 01:02:30;;;;;;;;;;;22.80;67.90;;;;;;5055488;28;20017;-81
2022/07/11 01:04:56;;;;;;;;;;;22.80;68.50;;;;;;5038298;28;19993;-81
2022/07/11 01:07:22;;;;;;;;;;;22.80;67.70;;;;;;5055427;28;19916;-81
2022/07/11 01:09:49;;;;;;;;;;;22.70;68.00;;;;;;5055533;28;20322;-81
2022/07/11 01:12:14;;;;;;;;;;;22.70;67.80;;;;;;5042218;28;19930;-81
2022/07/11 01:14:50;;;;;;;;;;;22.70;67.90;;;;;;5057445;28;19909;-80
2022/07/11 01:17:15;;;;;;;;;;;22.70;69.00;;;;;;5056312;28;19915;-80
2022/07/11 01:19:41;;;;;;;;;;;22.60;67.90;;;;;;5055463;28;19909;-81
2022/07/11 01:22:06;;;;;;;;;;;22.70;69.10;;;;;;5055524;28;19908;-80
2022/07/11 01:24:32;;;;;;;;;;;22.60;68.80;;;;;;5055415;28;19909;-82
2022/07/11 01:26:57;;;;;;;;;;;22.60;68.10;;;;;;5055517;28;19916;-81
2022/07/11 01:29:24;;;;;;;;;;;22.60;68.40;;;;;;5054897;28;20369;-81
2022/07/11 01:31:50;;;;;;;;;;;22.50;69.30;;;;;;5055697;28;19909;-78
2022/07/11 01:34:15;;;;;;;;;;;22.50;69.80;;;;;;5055296;28;20012;-78
2022/07/11 01:36:42;;;;;;;;;;;22.40;69.00;;;;;;5054982;28;19908;-74
2022/07/11 01:39:08;;;;;;;;;;;22.30;69.90;;;;;;5054493;28;20335;-76
2022/07/11 01:41:33;;;;;;;;;;;22.30;69.90;;;;;;5054693;28;19967;-80
2022/07/11 01:43:59;;;;;;;;;;;22.20;71.00;;;;;;5054089;28;19909;-76
2022/07/11 01:46:25;;;;;;;;;;;22.20;69.90;;;;;;5054586;28;19971;-75
2022/07/11 01:48:50;;;;;;;;;;;22.20;69.90;;;;;;5054596;28;19917;-76
2022/07/11 01:51:16;;;;;;;;;;;22.10;71.80;;;;;;5054575;28;19963;-75
2022/07/11 01:53:42;;;;;;;;;;;22.00;72.10;;;;;;5054691;28;20283;-76
2022/07/11 01:56:07;;;;;;;;;;;21.90;71.30;;;;;;5054373;28;19912;-76
2022/07/11 01:58:33;;;;;;;;;;;22.00;71.40;;;;;;5054281;28;19909;-75
2022/07/11 02:00:58;;;;;;;;;;;22.00;70.40;;;;;;5055022;28;19909;-75
2022/07/11 02:03:24;;;;;;;;;;;22.20;71.60;;;;;;5054673;28;19916;-73
2022/07/11 02:05:50;;;;;;;;;;;22.20;70.00;;;;;;5054579;28;19913;-73
2022/07/11 02:08:17;;;;;;;;;;;22.30;70.50;;;;;;5054115;28;19959;-73
2022/07/11 02:10:44;;;;;;;;;;;22.30;71.10;;;;;;5054270;28;20323;-70
2022/07/11 02:13:10;;;;;;;;;;;21.00;69.80;;;;;;5036474;28;20282;-71
2022/07/11 02:15:36;;;;;;;;;;;22.30;69.90;;;;;;5054235;28;19913;-70
2022/07/11 02:18:02;;;;;;;;;;;22.30;69.80;;;;;;5054248;28;19916;-71
2022/07/11 02:20:27;;;;;;;;;;;22.30;70.30;;;;;;5054577;28;20351;-71
2022/07/11 02:22:53;;;;;;;;;;;22.30;69.50;;;;;;5053983;28;19913;-71
2022/07/11 02:25:19;;;;;;;;;;;22.30;70.90;;;;;;5036177;28;20351;-69
2022/07/11 02:27:44;;;;;;;;;;;22.30;70.80;;;;;;5053942;28;19913;-70
2022/07/11 02:30:10;;;;;;;;;;;22.30;70.10;;;;;;5036294;28;19915;-70
2022/07/11 02:32:36;;;;;;;;;;;22.30;69.60;;;;;;5036712;28;19909;-79
2022/07/11 02:35:02;;;;;;;;;;;22.30;71.30;;;;;;5054441;28;19948;-78
2022/07/11 02:37:27;;;;;;;;;;;22.20;70.30;;;;;;5054302;28;20248;-79
2022/07/11 02:39:53;;;;;;;;;;;22.10;69.90;;;;;;5053390;28;20221;-79
2022/07/11 02:42:18;;;;;;;;;;;22.10;70.90;;;;;;5053704;28;19916;-79
2022/07/11 02:44:44;;;;;;;;;;;22.00;71.70;;;;;;5053575;28;19927;-79
2022/07/11 02:47:10;;;;;;;;;;;21.90;71.30;;;;;;5053634;28;19917;-79
2022/07/11 02:49:36;;;;;;;;;;;21.80;71.00;;;;;;5052742;28;20351;-80
2022/07/11 02:52:01;;;;;;;;;;;21.80;71.10;;;;;;5053486;28;19909;-78
2022/07/11 02:54:28;;;;;;;;;;;21.80;70.80;;;;;;5054002;28;19986;-77
2022/07/11 02:56:54;;;;;;;;;;;21.70;72.10;;;;;;5055010;28;19913;-78
2022/07/11 02:59:20;;;;;;;;;;;21.60;72.10;;;;;;5056698;28;20270;-78
2022/07/11 03:01:46;;;;;;;;;;;21.60;71.90;;;;;;5057264;28;19959;-78
2022/07/11 03:04:12;;;;;;;;;;;21.50;72.50;;;;;;5038846;28;20020;-79
2022/07/11 03:06:38;;;;;;;;;;;21.40;72.80;;;;;;5056297;28;19917;-78
2022/07/11 03:09:04;;;;;;;;;;;21.40;72.90;;;;;;5054569;28;19923;-81
2022/07/11 03:11:30;;;;;;;;;;;21.30;72.20;;;;;;5055879;28;19909;-80
2022/07/11 03:13:56;;;;;;;;;;;21.40;72.00;;;;;;5057151;28;19909;-73
2022/07/11 03:16:23;;;;;;;;;;;21.50;71.70;;;;;;5055158;28;19916;-73
2022/07/11 03:18:48;;;;;;;;;;;21.60;71.40;;;;;;5057026;28;19912;-76
2022/07/11 03:21:14;;;;;;;;;;;21.80;71.20;;;;;;5057187;28;20275;-76
2022/07/11 03:23:39;;;;;;;;;;;21.90;70.80;;;;;;5057059;28;19913;-76
2022/07/11 03:26:05;;;;;;;;;;;22.10;70.50;;;;;;5056476;28;20255;-74
2022/07/11 03:28:30;;;;;;;;;;;22.20;70.10;;;;;;5056714;28;19913;-76
2022/07/11 03:30:56;;;;;;;;;;;22.30;69.80;;;;;;5056318;28;19923;-73
2022/07/11 03:33:22;;;;;;;;;;;22.40;69.60;;;;;;5056475;28;20366;-76
2022/07/11 03:35:47;;;;;;;;;;;22.50;69.30;;;;;;5056445;28;19909;-76
2022/07/11 03:38:17;;;;;;;;;;;22.60;69.10;;;;;;5055932;28;19956;-79
2022/07/11 03:40:42;;;;;;;;;;;22.70;68.90;;;;;;5056563;28;19912;-77
2022/07/11 03:43:08;;;;;;;;;;;22.70;68.60;;;;;;5056524;28;19916;-78
2022/07/11 03:45:34;;;;;;;;;;;22.80;68.50;;;;;;5056449;28;19917;-77
2022/07/11 03:48:00;;;;;;;;;;;22.90;68.30;;;;;;5056295;28;19916;-77
2022/07/11 03:50:25;;;;;;;;;;;22.90;68.20;;;;;;5056206;28;20326;-77
2022/07/11 03:52:51;;;;;;;;;;;23.00;68.00;;;;;;5056137;28;19932;-77
2022/07/11 03:55:17;;;;;;;;;;;23.00;67.90;;;;;;5055364;28;19959;-76
2022/07/11 03:57:42;;;;;;;;;;;23.10;67.80;;;;;;5037725;28;20252;-77
2022/07/11 04:00:08;;;;;;;;;;;23.10;67.60;;;;;;5038852;28;19920;-77
2022/07/11 04:02:35;;;;;;;;;;;23.20;67.50;;;;;;5036163;28;19909;-76
2022/07/11 04:05:01;;;;;;;;;;;23.20;67.40;;;;;;5036043;28;19990;-75
2022/07/11 04:07:29;;;;;;;;;;;23.20;67.30;;;;;;5034647;28;20095;-74
2022/07/11 04:09:55;;;;;;;;;;;23.30;67.30;;;;;;5034778;28;20283;-77
2022/07/11 04:12:21;;;;;;;;;;;23.30;67.10;;;;;;5050057;28;19909;-76
2022/07/11 04:14:47;;;;;;;;;;;23.30;67.10;;;;;;5051648;28;19913;-77
2022/07/11 04:17:13;;;;;;;;;;;23.40;67.00;;;;;;5023303;28;19909;-77
2022/07/11 04:19:39;;;;;;;;;;;23.40;67.00;;;;;;5041553;28;20282;-76
2022/07/11 04:22:04;;;;;;;;;;;23.40;66.90;;;;;;5047817;28;19916;-74
2022/07/11 04:24:30;;;;;;;;;;;23.40;66.80;;;;;;5045532;28;19995;-79
2022/07/11 04:26:55;;;;;;;;;;;23.40;66.80;;;;;;5046423;28;20339;-77
2022/07/11 04:29:21;;;;;;;;;;;23.40;66.70;;;;;;5044677;28;19947;-76
2022/07/11 04:31:47;;;;;;;;;;;23.50;66.70;;;;;;5044776;28;19916;-76
2022/07/11 04:34:13;;;;;;;;;;;23.50;66.60;;;;;;5042875;28;19909;-79
2022/07/11 04:36:39;;;;;;;;;;;23.60;66.60;;;;;;5016484;28;19975;-72
2022/07/11 04:39:04;;;;;;;;;;;23.60;66.50;;;;;;5052954;28;20387;-71
2022/07/11 04:41:30;;;;;;;;;;;23.70;66.70;;;;;;5053906;28;19909;-68
2022/07/11 04:43:55;;;;;;;;;;;23.60;66.60;;;;;;5054204;28;19913;-69
2022/07/11 04:46:21;;;;;;;;;;;23.60;66.40;;;;;;5053527;28;19923;-71
2022/07/11 04:48:47;;;;;;;;;;;23.60;66.40;;;;;;5053876;28;19959;-73
2022/07/11 04:51:12;;;;;;;;;;;23.50;66.50;;;;;;5053889;28;20004;-72
2022/07/11 04:53:38;;;;;;;;;;;23.50;66.30;;;;;;5053424;28;19920;-71
2022/07/11 04:56:03;;;;;;;;;;;23.50;66.40;;;;;;5054129;28;19964;-70
2022/07/11 04:58:32;;;;;;;;;;;23.60;66.40;;;;;;5053689;28;19971;-71
2022/07/11 05:00:58;;;;;;;;;;;23.60;66.40;;;;;;5050206;28;19932;-71
2022/07/11 05:03:24;;;;;;;;;;;23.70;66.30;;;;;;5053801;28;20381;-73
2022/07/11 05:05:49;;;;;;;;;;;23.70;66.20;;;;;;5053586;28;19917;-72
2022/07/11 05:08:15;;;;;;;;;;;23.70;66.20;;;;;;5053305;28;20015;-74
2022/07/11 05:10:41;;;;;;;;;;;23.70;66.20;;;;;;5039802;28;19924;-74
2022/07/11 05:13:06;;;;;;;;;;;23.80;66.00;;;;;;5020012;28;19913;-73
2022/07/11 05:15:32;;;;;;;;;;;23.80;65.80;;;;;;5053674;28;19916;-72
2022/07/11 05:17:57;;;;;;;;;;;23.80;65.80;;;;;;5054315;28;19908;-73
2022/07/11 05:20:23;;;;;;;;;;;23.90;65.80;;;;;;5054218;28;19908;-73
2022/07/11 05:22:48;;;;;;;;;;;23.90;65.80;;;;;;5053774;28;20256;-70
2022/07/11 05:25:14;;;;;;;;;;;24.00;65.80;;;;;;5049374;28;19923;-71
2022/07/11 05:27:40;;;;;;;;;;;24.00;65.50;;;;;;5034493;28;20394;-72
2022/07/11 05:30:05;;;;;;;;;;;24.10;65.40;;;;;;5033497;28;19910;-72
2022/07/11 05:32:31;;;;;;;;;;;24.20;65.30;;;;;;5054095;28;19932;-70
2022/07/11 05:34:58;;;;;;;;;;;24.30;65.20;;;;;;5052641;28;19913;-72
2022/07/11 05:37:24;;;;;;;;;;;24.40;65.10;;;;;;5053571;28;19936;-72
2022/07/11 05:39:50;;;;;;;;;;;24.40;65.50;;;;;;5071738;28;20007;-69
2022/07/11 05:42:16;;;;;;;;;;;24.50;64.80;;;;;;5073821;28;20337;-72
2022/07/11 05:44:42;;;;;;;;;;;24.70;64.60;;;;;;5069744;28;20008;-72
2022/07/11 05:47:07;;;;;;;;;;;24.80;64.40;;;;;;5053698;28;20291;-74
2022/07/11 05:49:33;;;;;;;;;;;24.90;64.20;;;;;;5053897;28;19909;-74
2022/07/11 05:51:58;;;;;;;;;;;25.00;64.00;;;;;;5047979;28;19912;-73
2022/07/11 05:54:24;;;;;;;;;;;25.10;63.90;;;;;;5071708;28;19908;-71
2022/07/11 05:56:50;;;;;;;;;;;25.20;63.70;;;;;;5073737;28;19912;-72
2022/07/11 05:59:15;;;;;;;;;;;25.30;63.50;;;;;;5073732;28;20266;-70
2022/07/11 06:01:41;;;;;;;;;;;25.40;63.30;;;;;;5074299;28;20357;-77
2022/07/11 06:04:06;;;;;;;;;;;25.40;63.10;;;;;;5075424;28;19915;-82
2022/07/11 06:06:32;;;;;;;;;;;25.50;63.00;;;;;;5079128;28;19959;-84
2022/07/11 06:08:58;;;;;;;;;;;25.60;62.80;;;;;;5055379;28;19912;-84
2022/07/11 06:11:23;;;;;;;;;;;25.60;62.90;;;;;;5072889;28;20347;-83
2022/07/11 06:13:49;;;;;;;;;;;25.70;62.50;;;;;;5073991;28;19912;-84
2022/07/11 06:16:15;;;;;;;;;;;25.70;63.00;;;;;;5074236;28;20262;-84
2022/07/11 06:18:41;;;;;;;;;;;25.80;62.30;;;;;;5074780;28;19909;-84
2022/07/11 06:21:06;;;;;;;;;;;25.80;62.20;;;;;;5073888;28;20420;-83
2022/07/11 06:23:34;;;;;;;;;;;25.90;62.10;;;;;;5074606;28;20370;-84
2022/07/11 06:26:00;;;;;;;;;;;25.90;61.90;;;;;;5056578;28;19967;-85
2022/07/11 06:28:26;;;;;;;;;;;25.90;61.80;;;;;;5074561;28;19919;-83
2022/07/11 06:30:52;;;;;;;;;;;25.90;61.70;;;;;;5073601;28;19909;-84
2022/07/11 06:33:21;;;;;;;;;;;26.00;61.70;;;;;;5074046;28;19909;-82
2022/07/11 06:35:47;;;;;;;;;;;26.00;61.60;;;;;;5074137;28;19908;-84
2022/07/11 06:38:13;;;;;;;;;;;26.00;61.50;;;;;;5073516;28;19920;-84
2022/07/11 06:40:40;;;;;;;;;;;26.00;61.40;;;;;;5074134;28;19913;-84
2022/07/11 06:43:06;;;;;;;;;;;26.00;61.30;;;;;;5074106;28;19916;-83
2022/07/11 06:45:32;;;;;;;;;;;26.00;61.20;;;;;;5074314;28;19916;-84
2022/07/11 06:47:57;;;;;;;;;;;26.00;61.20;;;;;;5073908;28;20003;-85
2022/07/11 06:50:23;;;;;;;;;;;26.00;61.20;;;;;;5074098;28;19951;-84
2022/07/11 06:52:48;;;;;;;;;;;26.10;61.20;;;;;;5074810;28;19954;-83
2022/07/11 06:55:14;;;;;;;;;;;26.10;61.10;;;;;;5074130;28;19962;-85
2022/07/11 06:57:40;;;;;;;;;;;26.10;61.00;;;;;;5073919;28;19908;-85
2022/07/11 07:00:08;;;;;;;;;;;26.10;61.00;;;;;;5073732;28;19908;-85
2022/07/11 07:02:34;;;;;;;;;;;26.10;60.90;;;;;;5073726;28;19909;-85
2022/07/11 07:05:00;;;;;;;;;;;26.10;60.80;;;;;;5073829;28;19912;-85
2022/07/11 07:07:26;;;;;;;;;;;26.10;60.90;;;;;;5073990;28;19916;-85
2022/07/11 07:09:52;;;;;;;;;;;26.00;60.90;;;;;;5073676;28;19951;-85
2022/07/11 07:12:18;;;;;;;;;;;26.00;61.00;;;;;;5073668;28;20143;-85
2022/07/11 07:14:44;;;;;;;;;;;26.00;61.00;;;;;;5073823;28;20005;-84
2022/07/11 07:17:09;;;;;;;;;;;26.00;61.10;;;;;;5077699;28;19955;-84
2022/07/11 07:19:35;;;;;;;;;;;26.00;61.00;;;;;;5081391;28;19908;-84
2022/07/11 07:22:00;;;;;;;;;;;26.00;61.60;;;;;;5073996;28;20310;-84
2022/07/11 07:24:26;;;;;;;;;;;26.00;61.00;;;;;;5074116;28;19912;-84
2022/07/11 07:26:51;;;;;;;;;;;26.00;61.00;;;;;;5073648;28;20298;-85
2022/07/11 07:29:17;;;;;;;;;;;26.00;61.00;;;;;;5073800;28;19913;-84
2022/07/11 07:31:42;;;;;;;;;;;26.00;60.90;;;;;;5073648;28;19962;-84
2022/07/11 07:34:09;;;;;;;;;;;26.00;60.90;;;;;;5073487;28;20021;-84
2022/07/11 07:36:35;;;;;;;;;;;26.00;60.80;;;;;;5073700;28;19908;-84
2022/07/11 07:39:00;;;;;;;;;;;26.10;60.80;;;;;;5060753;28;20279;-86
2022/07/11 07:41:27;;;;;;;;;;;26.10;60.70;;;;;;5053338;28;19944;-85
2022/07/11 07:43:52;;;;;;;;;;;26.20;60.60;;;;;;5055326;28;19909;-85
2022/07/11 07:46:18;;;;;;;;;;;26.30;60.60;;;;;;5056878;28;19927;-84
2022/07/11 07:48:44;;;;;;;;;;;26.40;60.40;;;;;;5057017;28;19917;-85
2022/07/11 07:51:09;;;;;;;;;;;26.40;60.30;;;;;;5057628;28;19955;-85
2022/07/11 07:53:35;;;;;;;;;;;26.50;60.20;;;;;;5057169;28;19955;-87
2022/07/11 07:56:01;;;;;;;;;;;26.70;60.20;;;;;;5038708;28;19959;-87
2022/07/11 07:58:26;;;;;;;;;;;26.70;59.50;;;;;;5056695;28;19917;-87
2022/07/11 08:03:36;;;;;;;;;;;26.70;59.20;;;;;;5056851;28;19916;-86
2022/07/11 08:06:01;;;;;;;;;;;26.70;59.50;;;;;;5056612;28;20259;-85
2022/07/11 08:08:27;;;;;;;;;;;26.80;59.50;;;;;;5056332;28;19913;-85
2022/07/11 08:10:53;;;;;;;;;;;26.80;59.50;;;;;;5056648;28;19909;-85
2022/07/11 08:13:19;;;;;;;;;;;26.80;59.40;;;;;;5056511;28;19917;-82
2022/07/11 08:15:46;;;;;;;;;;;26.90;59.40;;;;;;5056271;28;19908;-85
2022/07/11 08:18:11;;;;;;;;;;;26.90;59.30;;;;;;5038647;28;19908;-85
2022/07/11 08:20:37;;;;;;;;;;;26.90;59.20;;;;;;5056718;28;19941;-85
2022/07/11 08:23:03;;;;;;;;;;;27.00;59.10;;;;;;5056155;28;19909;-85
2022/07/11 08:25:32;;;;;;;;;;;27.00;59.00;;;;;;5056229;28;19959;-85
2022/07/11 08:27:58;;;;;;;;;;;27.10;59.00;;;;;;5057011;28;20271;-85
2022/07/11 08:30:25;;;;;;;;;;;27.10;58.80;;;;;;5062945;28;19904;-84
2022/07/11 08:32:51;;;;;;;;;;;27.20;58.80;;;;;;5059660;28;19972;-84
2022/07/11 08:35:16;;;;;;;;;;;27.30;58.80;;;;;;5056462;28;19971;-86
2022/07/11 08:37:42;;;;;;;;;;;27.30;58.60;;;;;;5056958;28;19913;-85
2022/07/11 08:40:08;;;;;;;;;;;27.40;58.50;;;;;;5076302;28;19970;-86
2022/07/11 08:42:39;;;;;;;;;;;27.50;58.40;;;;;;5076125;28;19944;-85
2022/07/11 08:45:05;;;;;;;;;;;27.50;58.30;;;;;;5057906;28;20391;-85
2022/07/11 08:47:30;;;;;;;;;;;27.50;58.10;;;;;;5075948;28;20008;-86
2022/07/11 08:49:58;;;;;;;;;;;27.60;58.10;;;;;;5075901;28;19908;-85
2022/07/11 08:52:23;;;;;;;;;;;27.70;58.00;;;;;;5075900;28;19916;-86
2022/07/11 08:54:49;;;;;;;;;;;27.70;57.80;;;;;;5057360;28;19909;-85
2022/07/11 08:57:15;;;;;;;;;;;27.70;57.60;;;;;;5075557;28;19908;-84
2022/07/11 08:59:42;;;;;;;;;;;27.80;57.50;;;;;;5077221;28;19916;-84
2022/07/11 09:02:08;;;;;;;;;;;27.80;57.40;;;;;;5076640;28;20367;-85
2022/07/11 09:04:34;;;;;;;;;;;27.80;57.10;;;;;;5075733;28;19908;-86
2022/07/11 09:07:01;;;;;;;;;;;27.80;57.20;;;;;;5075583;28;19969;-83
2022/07/11 09:09:27;;;;;;;;;;;27.80;57.10;;;;;;5075616;28;19915;-85
2022/07/11 09:11:54;;;;;;;;;;;27.90;57.10;;;;;;5057773;28;20306;-82
2022/07/11 09:14:30;;;;;;;;;;;27.90;56.90;;;;;;5079119;28;19908;-85
2022/07/11 09:16:57;;;;;;;;;;;28.00;56.80;;;;;;5076092;28;19915;-85
2022/07/11 09:19:26;;;;;;;;;;;28.00;56.80;;;;;;5075486;28;19908;-86
2022/07/11 09:27:48;;;;;;;;;;;28.00;56.60;;;;;;5076456;28;19966;-85
2022/07/11 09:30:16;;;;;;;;;;;28.00;56.40;;;;;;5059519;28;19908;-86
2022/07/11 09:33:01;;;;;;;;;;;28.10;56.50;;;;;;5075322;28;19999;-85
2022/07/11 09:35:28;;;;;;;;;;;28.10;56.50;;;;;;5074333;28;19908;-84
2022/07/11 09:37:54;;;;;;;;;;;28.10;56.30;;;;;;5075054;28;20222;-85
2022/07/11 09:40:21;;;;;;;;;;;28.10;56.30;;;;;;5075267;28;19909;-85
2022/07/11 09:42:50;;;;;;;;;;;28.10;56.10;;;;;;5081850;28;20264;-85
2022/07/11 09:45:16;;;;;;;;;;;28.20;56.20;;;;;;5076933;28;19926;-85
2022/07/11 09:47:43;;;;;;;;;;;28.30;56.10;;;;;;5075048;28;20363;-85
2022/07/11 09:50:09;;;;;;;;;;;28.30;55.90;;;;;;5074837;28;19913;-85
2022/07/11 09:52:34;;;;;;;;;;;28.40;55.90;;;;;;5075279;28;20015;-85
2022/07/11 09:55:01;;;;;;;;;;;28.40;55.80;;;;;;5074787;28;19915;-86
2022/07/11 09:57:29;;;;;;;;;;;28.40;55.80;;;;;;5074828;28;20340;-85
2022/07/11 09:59:55;;;;;;;;;;;28.40;55.70;;;;;;5074617;28;20003;-83
2022/07/11 10:02:21;;;;;;;;;;;28.40;55.60;;;;;;5078011;28;19940;-86
2022/07/11 10:04:47;;;;;;;;;;;28.40;55.60;;;;;;5075184;28;20350;-85
2022/07/11 10:07:13;;;;;;;;;;;28.30;55.50;;;;;;5074088;28;19919;-85
2022/07/11 10:09:38;;;;;;;;;;;28.30;55.60;;;;;;5074826;28;20309;-85
2022/07/11 10:12:04;;;;;;;;;;;28.40;55.60;;;;;;5074520;28;20373;-84
2022/07/11 10:14:30;;;;;;;;;;;28.40;55.50;;;;;;5075206;28;19912;-85
2022/07/11 10:16:59;;;;;;;;;;;28.40;55.40;;;;;;5075110;28;19913;-85
2022/07/11 10:19:30;;;;;;;;;;;28.40;55.20;;;;;;5074814;28;19963;-86
2022/07/11 10:22:14;;;;;;;;;;;28.40;55.20;;;;;;5074336;28;19908;-86
2022/07/11 10:24:56;;;;;;;;;;;28.40;55.10;;;;;;5074591;28;19916;-84
2022/07/11 10:27:27;;;;;;;;;;;28.40;55.00;;;;;;5074211;28;19948;-85
2022/07/11 10:29:53;;;;;;;;;;;28.30;55.00;;;;;;5074460;28;19915;-86
2022/07/11 10:32:19;;;;;;;;;;;28.30;55.10;;;;;;5056307;28;19912;-86
2022/07/11 10:34:47;;;;;;;;;;;28.30;55.10;;;;;;5074563;28;19992;-86
2022/07/11 10:37:13;;;;;;;;;;;28.30;55.10;;;;;;5074341;28;19909;-85
2022/07/11 10:39:46;;;;;;;;;;;28.20;55.10;;;;;;5074744;28;19928;-85
2022/07/11 10:42:18;;;;;;;;;;;27.20;54.30;;;;;;5056443;28;19912;-86
2022/07/11 10:44:48;;;;;;;;;;;28.30;55.10;;;;;;5073013;28;19908;-85
2022/07/11 10:47:35;;;;;;;;;;;28.30;54.90;;;;;;5056481;28;19959;-85
2022/07/11 10:50:07;;;;;;;;;;;28.40;54.90;;;;;;5074779;28;19920;-86
2022/07/11 10:52:34;;;;;;;;;;;28.40;54.80;;;;;;5082454;28;19968;-85
2022/07/11 10:55:02;;;;;;;;;;;28.50;54.70;;;;;;5078004;28;19916;-85
2022/07/11 10:57:35;;;;;;;;;;;28.50;54.60;;;;;;5074104;28;19908;-86
2022/07/11 11:00:05;;;;;;;;;;;28.60;54.50;;;;;;5078407;28;19958;-86
2022/07/11 11:02:31;;;;;;;;;;;28.60;54.40;;;;;;5074896;28;19916;-86
2022/07/11 11:04:58;;;;;;;;;;;28.60;54.30;;;;;;5073995;28;19909;-87
2022/07/11 11:07:44;;;;;;;;;;;28.50;54.10;;;;;;5074217;28;20003;-85
2022/07/11 11:10:15;;;;;;;;;;;28.50;54.10;;;;;;5074197;28;19915;-86
2022/07/11 11:13:03;;;;;;;;;;;28.40;54.00;;;;;;5074043;28;20077;-85
2022/07/11 11:15:32;;;;;;;;;;;28.30;54.10;;;;;;5074087;28;20259;-85
2022/07/11 11:17:57;;;;;;;;;;;28.20;54.10;;;;;;5076415;28;19908;-85
2022/07/11 11:20:32;;;;;;;;;;;28.20;54.30;;;;;;5077976;28;20373;-86
2022/07/11 11:23:10;;;;;;;;;;;28.10;54.40;;;;;;5080365;28;19909;-82
2022/07/11 11:25:36;;;;;;;;;;;28.00;54.40;;;;;;5078969;28;20366;-85
2022/07/11 11:28:05;;;;;;;;;;;27.90;54.60;;;;;;5077869;28;19913;-85
2022/07/11 11:30:31;;;;;;;;;;;27.90;54.60;;;;;;5060257;28;19909;-85
2022/07/11 11:32:57;;;;;;;;;;;27.90;54.70;;;;;;5077540;28;19923;-81
2022/07/11 11:35:23;;;;;;;;;;;27.90;54.70;;;;;;5079724;28;20417;-85
2022/07/11 11:37:48;;;;;;;;;;;27.90;54.60;;;;;;5080758;28;19912;-85
2022/07/11 11:40:14;;;;;;;;;;;28.00;54.60;;;;;;5078311;28;19909;-85
2022/07/11 11:42:40;;;;;;;;;;;28.00;54.60;;;;;;5078059;28;19912;-85
2022/07/11 11:45:07;;;;;;;;;;;28.00;54.50;;;;;;5077235;28;19916;-86
2022/07/11 11:47:35;;;;;;;;;;;28.00;54.50;;;;;;5077233;28;19916;-85
2022/07/11 11:50:01;;;;;;;;;;;28.00;54.50;;;;;;5077430;28;19908;-86
2022/07/11 11:52:32;;;;;;;;;;;28.00;54.50;;;;;;5059233;28;19909;-84
2022/07/11 11:54:58;;;;;;;;;;;28.10;54.60;;;;;;5059816;28;20278;-86
2022/07/11 11:57:25;;;;;;;;;;;28.10;54.40;;;;;;5077121;28;19919;-85
2022/07/11 11:59:51;;;;;;;;;;;28.20;54.30;;;;;;5059384;28;20302;-85
2022/07/11 12:02:23;;;;;;;;;;;28.30;54.30;;;;;;5078994;28;19987;-86
2022/07/11 12:04:49;;;;;;;;;;;28.40;54.20;;;;;;5078728;28;19920;-85
2022/07/11 12:07:21;;;;;;;;;;;28.50;54.10;;;;;;5076924;28;20359;-84
2022/07/11 12:09:50;;;;;;;;;;;28.60;54.00;;;;;;5076781;28;19908;-85
2022/07/11 12:12:45;;;;;;;;;;;28.60;53.80;;;;;;5076984;28;19967;-85
2022/07/11 12:15:25;;;;;;;;;;;28.70;53.80;;;;;;5058999;28;20351;-85
2022/07/11 12:17:52;;;;;;;;;;;28.80;53.70;;;;;;5077365;28;19908;-86
2022/07/11 12:20:53;;;;;;;;;;;28.90;53.40;;;;;;5058997;28;20377;-85
2022/07/11 12:23:19;;;;;;;;;;;28.90;53.30;;;;;;4995292;28;19913;-85
2022/07/11 12:25:45;;;;;;;;;;;28.90;53.30;;;;;;5059869;28;20266;-86
2022/07/11 12:28:11;;;;;;;;;;;28.80;53.20;;;;;;5076942;28;19913;-86
2022/07/11 12:30:37;;;;;;;;;;;28.70;53.20;;;;;;5076818;28;19908;-85
2022/07/11 12:33:03;;;;;;;;;;;28.60;53.20;;;;;;5076729;28;19962;-85
2022/07/11 12:35:29;;;;;;;;;;;28.50;53.20;;;;;;5076451;28;20025;-85
2022/07/11 12:37:54;;;;;;;;;;;28.50;53.30;;;;;;5077985;28;19940;-84
2022/07/11 12:40:20;;;;;;;;;;;28.40;53.50;;;;;;5079057;28;20354;-88
2022/07/11 12:42:46;;;;;;;;;;;28.20;53.60;;;;;;5079081;28;19915;-86
2022/07/11 12:45:12;;;;;;;;;;;28.20;53.70;;;;;;5076182;28;20372;-85
2022/07/11 12:47:39;;;;;;;;;;;28.00;53.70;;;;;;5058839;28;19963;-85
2022/07/11 12:50:19;;;;;;;;;;;28.00;53.90;;;;;;5058956;28;19909;-86
2022/07/11 12:52:47;;;;;;;;;;;27.80;53.70;;;;;;5076476;28;19955;-86
2022/07/11 12:55:39;;;;;;;;;;;27.70;54.20;;;;;;5075949;28;19908;-85
2022/07/11 12:58:09;;;;;;;;;;;27.50;54.20;;;;;;5071731;28;19912;-85
2022/07/11 13:00:39;;;;;;;;;;;27.40;54.40;;;;;;5075748;28;20003;-86
2022/07/11 13:03:05;;;;;;;;;;;27.30;54.20;;;;;;5075701;28;19909;-85
2022/07/11 13:05:50;;;;;;;;;;;27.20;54.60;;;;;;5075800;28;19923;-84
2022/07/11 13:08:48;;;;;;;;;;;27.10;54.80;;;;;;5075762;28;19923;-86
2022/07/11 13:11:18;;;;;;;;;;;27.10;55.00;;;;;;5079016;28;19914;-86
2022/07/11 13:13:47;;;;;;;;;;;27.00;55.00;;;;;;5066546;28;19909;-81
2022/07/11 13:16:13;;;;;;;;;;;26.90;55.00;;;;;;5059530;28;19969;-85
2022/07/11 13:18:38;;;;;;;;;;;26.80;54.90;;;;;;5078880;28;20358;-85
2022/07/11 13:21:04;;;;;;;;;;;26.50;55.10;;;;;;5060696;28;19934;-86
2022/07/11 13:23:30;;;;;;;;;;;26.20;55.30;;;;;;5076171;28;19938;-85
2022/07/11 13:25:56;;;;;;;;;;;26.00;55.70;;;;;;5076019;28;19912;-87
2022/07/11 13:28:25;;;;;;;;;;;25.90;56.20;;;;;;5077570;28;19920;-85
2022/07/11 13:30:51;;;;;;;;;;;25.80;56.40;;;;;;5075302;28;19909;-86
2022/07/11 13:33:17;;;;;;;;;;;25.60;56.90;;;;;;5058063;28;20397;-85
2022/07/11 13:35:43;;;;;;;;;;;25.40;57.10;;;;;;5075559;28;19909;-85
2022/07/11 13:38:09;;;;;;;;;;;25.30;57.20;;;;;;5053152;28;19921;-85
2022/07/11 13:40:34;;;;;;;;;;;25.20;57.50;;;;;;5055010;28;19952;-86
2022/07/11 13:43:02;;;;;;;;;;;25.10;57.50;;;;;;5054890;28;19963;-84
2022/07/11 13:45:27;;;;;;;;;;;25.10;58.00;;;;;;5054985;28;20442;-84
2022/07/11 13:47:53;;;;;;;;;;;25.10;58.00;;;;;;5055174;28;19952;-85
2022/07/11 13:50:20;;;;;;;;;;;25.10;57.70;;;;;;5055203;28;19920;-83
2022/07/11 13:52:48;;;;;;;;;;;25.10;57.80;;;;;;5054629;28;19962;-85
2022/07/11 13:55:17;;;;;;;;;;;25.10;58.20;;;;;;5054408;28;20000;-86
2022/07/11 13:57:43;;;;;;;;;;;25.00;58.40;;;;;;5054810;28;19913;-86
2022/07/11 14:00:09;;;;;;;;;;;24.80;58.00;;;;;;5054811;28;19912;-84
2022/07/11 14:02:34;;;;;;;;;;;24.70;58.50;;;;;;5055460;28;20263;-85
2022/07/11 14:05:00;;;;;;;;;;;24.30;58.80;;;;;;5055375;28;20290;-84
2022/07/11 14:07:25;;;;;;;;;;;24.40;58.80;;;;;;5054449;28;19913;-84
2022/07/11 14:09:51;;;;;;;;;;;24.40;58.80;;;;;;5054385;28;19908;-86
2022/07/11 14:12:17;;;;;;;;;;;24.30;59.30;;;;;;5036752;28;19912;-86
2022/07/11 14:14:42;;;;;;;;;;;24.30;59.20;;;;;;5036920;28;20266;-86
2022/07/11 14:17:08;;;;;;;;;;;24.30;59.20;;;;;;5036863;28;19967;-85
2022/07/11 14:19:37;;;;;;;;;;;24.20;59.40;;;;;;5054799;28;19908;-86
2022/07/11 14:22:05;;;;;;;;;;;24.20;59.70;;;;;;5054937;28;19909;-85
2022/07/11 14:24:31;;;;;;;;;;;24.10;59.40;;;;;;5060267;28;19920;-86